createdAt,value
2019-04-19T00:01:12.205Z,4.00
2019-04-19T00:03:40.266Z,4.50
2019-04-19T00:06:16.496Z,3.80
2019-04-19T00:08:59.966Z,4.30
2019-04-19T00:11:21.112Z,4.60
2019-04-19T00:13:40.901Z,4.50
2019-04-19T00:16:10.805Z,4.30
2019-04-19T00:18:47.989Z,4.20
2019-04-19T00:21:30.554Z,4.20
2019-04-19T00:23:44.611Z,4.20
2019-04-19T00:26:10.672Z,4.40
2019-04-19T00:28:47.784Z,4.30
2019-04-19T00:31:22.723Z,4.07
2019-04-19T00:33:44.465Z,4.33
2019-04-19T00:36:12.552Z,4.53
2019-04-19T00:38:54.225Z,4.40
2019-04-19T00:41:34.354Z,4.33
2019-04-19T00:44:05.755Z,4.20
2019-04-19T00:46:38.119Z,4.90
2019-04-19T00:49:08.020Z,4.30
2019-04-19T00:51:39.934Z,4.83
2019-04-19T00:54:06.115Z,4.63
2019-04-19T00:56:33.585Z,4.53
2019-04-19T00:59:00.687Z,4.67
2019-04-19T01:01:26.484Z,4.60
2019-04-19T01:03:55.678Z,4.20
2019-04-19T01:06:32.661Z,4.43
2019-04-19T01:09:07.574Z,4.97
2019-04-19T01:11:37.185Z,4.83
2019-04-19T01:14:08.385Z,4.40
2019-04-19T01:16:37.153Z,4.77
2019-04-19T01:19:03.652Z,4.27
2019-04-19T01:21:26.248Z,5.00
2019-04-19T01:23:59.084Z,4.60
2019-04-19T01:26:25.610Z,4.70
2019-04-19T01:29:01.635Z,4.30
2019-04-19T01:31:27.963Z,4.50
2019-04-19T01:33:54.721Z,4.40
2019-04-19T01:36:26.642Z,4.50
2019-04-19T01:39:14.115Z,4.23
2019-04-19T01:41:39.569Z,4.70
2019-04-19T01:44:16.215Z,5.10
2019-04-19T01:46:48.955Z,4.63
2019-04-19T01:49:13.984Z,4.53
2019-04-19T01:51:51.781Z,4.50
2019-04-19T01:54:34.581Z,4.67
2019-04-19T01:56:56.878Z,4.80
2019-04-19T01:59:20.491Z,4.53
2019-04-19T02:01:50.661Z,4.40
2019-04-19T02:04:24.673Z,4.67
2019-04-19T02:06:51.185Z,4.40
2019-04-19T02:09:31.328Z,4.43
2019-04-19T02:12:11.056Z,4.77
2019-04-19T02:14:38.196Z,5.10
2019-04-19T02:17:00.857Z,4.50
2019-04-19T02:19:29.474Z,4.50
2019-04-19T02:22:02.063Z,4.87
2019-04-19T02:24:34.635Z,4.70
2019-04-19T02:27:04.208Z,4.80
2019-04-19T02:29:31.671Z,4.97
2019-04-19T02:32:24.535Z,4.30
2019-04-19T02:34:58.683Z,5.13
2019-04-19T02:42:37.099Z,5.23
2019-04-19T02:47:39.197Z,4.73
2019-04-19T02:49:56.215Z,4.43
2019-04-19T02:52:36.940Z,5.00
2019-04-19T02:57:49.196Z,4.60
2019-04-19T03:00:13.454Z,4.80
2019-04-19T03:02:50.258Z,4.70
2019-04-19T03:05:14.975Z,4.60
2019-04-19T03:07:17.877Z,4.80
2019-04-19T03:09:47.274Z,4.80
2019-04-19T03:12:37.566Z,4.87
2019-04-19T03:15:02.038Z,4.90
2019-04-19T03:17:34.590Z,4.57
2019-04-19T03:20:09.262Z,4.67
2019-04-19T03:22:35.793Z,4.87
2019-04-19T03:25:09.000Z,4.67
2019-04-19T03:27:27.387Z,4.53
2019-04-19T03:29:55.699Z,4.70
2019-04-19T03:33:00.414Z,4.60
2019-04-19T03:35:03.985Z,4.60
2019-04-19T03:37:40.208Z,4.47
2019-04-19T03:40:18.886Z,4.43
2019-04-19T03:42:43.567Z,4.60
2019-04-19T03:45:25.715Z,4.30
2019-04-19T03:47:45.953Z,4.40
2019-04-19T03:50:12.946Z,4.70
2019-04-19T03:52:42.556Z,4.63
2019-04-19T03:55:14.081Z,4.67
2019-04-19T03:57:37.389Z,4.73
2019-04-19T03:59:54.240Z,4.63
2019-04-19T04:02:29.828Z,4.60
2019-04-19T04:04:59.471Z,4.87
2019-04-19T04:07:27.538Z,5.27
2019-04-19T04:09:59.275Z,4.80
2019-04-19T04:12:40.597Z,4.83
2019-04-19T04:15:11.896Z,4.90
2019-04-19T04:17:31.134Z,4.33
2019-04-19T04:20:00.893Z,4.80
2019-04-19T04:22:35.006Z,4.47
2019-04-19T04:25:09.546Z,4.80
2019-04-19T04:27:43.705Z,4.80
2019-04-19T04:30:10.136Z,5.13
2019-04-19T04:32:42.860Z,5.20
2019-04-19T04:35:20.255Z,5.07
2019-04-19T04:37:44.775Z,4.50
2019-04-19T04:40:02.307Z,4.70
2019-04-19T04:42:37.459Z,5.03
2019-04-19T04:45:23.003Z,4.67
2019-04-19T04:47:50.763Z,4.50
2019-04-19T04:50:45.437Z,4.93
2019-04-19T04:52:54.382Z,4.43
2019-04-19T04:55:28.351Z,4.63
2019-04-19T04:58:00.587Z,4.87
2019-04-19T05:00:35.017Z,4.77
2019-04-19T05:03:12.811Z,4.97
2019-04-19T05:05:46.123Z,5.10
2019-04-19T05:08:20.434Z,4.97
2019-04-19T05:10:41.069Z,4.60
2019-04-19T05:13:19.577Z,4.83
2019-04-19T05:15:51.842Z,4.83
2019-04-19T05:20:45.967Z,4.90
2019-04-19T05:23:19.795Z,4.73
2019-04-19T05:25:52.063Z,4.83
2019-04-19T05:28:18.895Z,4.63
2019-04-19T05:30:41.184Z,5.77
2019-04-19T05:33:11.653Z,4.97
2019-04-19T05:35:53.833Z,4.50
2019-04-19T05:38:44.926Z,4.63
2019-04-19T05:41:06.407Z,5.07
2019-04-19T05:46:21.027Z,4.87
2019-04-19T05:48:39.902Z,4.77
2019-04-19T05:51:27.599Z,5.13
2019-04-19T05:53:36.864Z,5.00
2019-04-19T05:56:00.755Z,4.90
2019-04-19T05:58:43.355Z,5.13
2019-04-19T06:01:18.501Z,4.83
2019-04-19T06:03:48.439Z,4.87
2019-04-19T06:06:26.439Z,4.73
2019-04-19T06:08:34.279Z,4.83
2019-04-19T06:11:03.358Z,4.60
2019-04-19T06:13:31.857Z,5.00
2019-04-19T06:16:21.071Z,5.13
2019-04-19T06:18:48.589Z,4.47
2019-04-19T06:21:23.008Z,5.17
2019-04-19T06:23:53.922Z,4.87
2019-04-19T06:26:50.364Z,4.77
2019-04-19T06:29:01.820Z,4.57
2019-04-19T06:31:27.141Z,4.67
2019-04-19T06:33:56.222Z,5.07
2019-04-19T06:36:06.378Z,4.77
2019-04-19T06:38:35.454Z,4.87
2019-04-19T06:41:10.292Z,4.50
2019-04-19T06:43:47.536Z,5.13
2019-04-19T06:46:16.582Z,5.37
2019-04-19T06:48:38.154Z,4.17
2019-04-19T06:51:15.569Z,4.93
2019-04-19T06:53:41.010Z,5.17
2019-04-19T06:56:14.456Z,5.20
2019-04-19T06:58:45.397Z,5.43
2019-04-19T07:01:17.980Z,5.03
2019-04-19T07:03:36.525Z,5.00
2019-04-19T07:06:19.716Z,4.60
2019-04-19T07:09:09.023Z,5.20
2019-04-19T07:11:27.333Z,5.37
2019-04-19T07:13:48.739Z,4.90
2019-04-19T07:16:26.531Z,5.00
2019-04-19T07:18:46.164Z,5.30
2019-04-19T07:21:31.593Z,4.70
2019-04-19T07:23:54.616Z,5.07
2019-04-19T07:26:27.406Z,4.97
2019-04-19T07:28:40.077Z,4.93
2019-04-19T07:31:11.339Z,4.70
2019-04-19T07:33:46.695Z,4.67
2019-04-19T07:36:28.953Z,4.77
2019-04-19T07:38:57.604Z,4.70
2019-04-19T07:41:30.380Z,4.50
2019-04-19T07:44:02.422Z,4.80
2019-04-19T07:46:40.007Z,4.87
2019-04-19T07:48:53.652Z,4.47
2019-04-19T07:51:28.614Z,4.83
2019-04-19T07:53:54.709Z,4.70
2019-04-19T07:56:37.622Z,4.40
2019-04-19T07:59:18.507Z,4.50
2019-04-19T08:04:33.136Z,4.40
2019-04-19T08:06:58.908Z,4.47
2019-04-19T08:09:21.630Z,4.63
2019-04-19T08:12:01.186Z,4.50
2019-04-19T08:14:22.884Z,4.47
2019-04-19T08:29:12.180Z,4.10
2019-04-19T08:31:27.570Z,3.90
2019-04-19T08:33:56.223Z,4.20
2019-04-19T08:36:32.277Z,4.67
2019-04-19T08:39:15.343Z,4.20
2019-04-19T08:41:39.801Z,4.33
2019-04-19T08:44:16.499Z,3.93
2019-04-19T08:46:28.195Z,4.07
2019-04-19T08:49:05.534Z,4.17
2019-04-19T08:51:39.969Z,4.30
2019-04-19T08:54:29.757Z,4.43
2019-04-19T08:56:44.973Z,3.83
2019-04-19T08:59:34.884Z,4.20
2019-04-19T09:01:57.451Z,4.40
2019-04-19T09:04:26.066Z,4.17
2019-04-19T09:09:32.634Z,4.00
2019-04-19T09:11:57.490Z,4.03
2019-04-19T09:14:32.816Z,4.10
2019-04-19T09:17:01.189Z,4.10
2019-04-19T09:19:44.631Z,4.27
2019-04-19T09:21:52.185Z,4.00
2019-04-19T09:24:15.971Z,4.17
2019-04-19T09:27:03.076Z,4.00
2019-04-19T09:29:40.395Z,3.70
2019-04-19T09:31:56.051Z,3.60
2019-04-19T09:34:20.070Z,3.53
2019-04-19T09:36:58.210Z,4.17
2019-04-19T09:39:31.225Z,3.60
2019-04-19T09:41:56.596Z,4.37
2019-04-19T09:44:25.856Z,4.37
2019-04-19T09:46:48.893Z,3.70
2019-04-19T09:49:36.829Z,3.50
2019-04-19T09:52:05.843Z,4.23
2019-04-19T09:54:43.531Z,3.30
2019-04-19T09:57:01.154Z,3.37
2019-04-19T09:59:25.800Z,3.70
2019-04-19T10:01:55.100Z,3.73
2019-04-19T10:04:19.233Z,4.00
2019-04-19T10:06:48.923Z,3.57
2019-04-19T10:09:22.234Z,3.70
2019-04-19T10:11:50.787Z,3.60
2019-04-19T10:14:19.583Z,4.13
2019-04-19T10:16:50.634Z,3.73
2019-04-19T10:19:19.277Z,3.53
2019-04-19T10:21:49.520Z,3.60
2019-04-19T10:24:20.645Z,3.67
2019-04-19T10:26:52.635Z,3.57
2019-04-19T10:29:28.127Z,4.00
2019-04-19T10:31:59.396Z,3.47
2019-04-19T10:34:28.199Z,3.47
2019-04-19T10:36:58.716Z,3.80
2019-04-19T10:39:27.852Z,3.47
2019-04-19T10:41:56.532Z,3.73
2019-04-19T10:44:26.995Z,3.30
2019-04-19T10:46:56.603Z,3.40
2019-04-19T10:49:33.523Z,3.30
2019-04-19T10:52:00.672Z,3.77
2019-04-19T10:54:30.607Z,3.43
2019-04-19T10:57:06.549Z,3.73
2019-04-19T10:59:36.470Z,3.73
2019-04-19T11:02:06.311Z,3.30
2019-04-19T11:04:35.292Z,3.30
2019-04-19T11:07:05.553Z,3.30
2019-04-19T11:09:35.395Z,3.40
2019-04-19T11:12:06.179Z,3.43
2019-04-19T11:14:34.786Z,3.33
2019-04-19T11:17:05.437Z,3.80
2019-04-19T11:19:51.825Z,3.53
2019-04-19T11:22:05.647Z,3.50
2019-04-19T11:27:03.378Z,3.60
2019-04-19T11:29:32.401Z,3.53
2019-04-19T11:32:06.018Z,4.00
2019-04-19T11:34:35.473Z,3.43
2019-04-19T11:37:05.294Z,3.23
2019-04-19T11:39:34.986Z,3.37
2019-04-19T11:42:03.710Z,3.33
2019-04-19T11:44:32.843Z,3.63
2019-04-19T11:47:03.509Z,3.57
2019-04-19T11:49:36.179Z,3.40
2019-04-19T11:52:03.057Z,3.40
2019-04-19T11:54:32.525Z,3.23
2019-04-19T11:57:06.343Z,3.70
2019-04-19T11:59:50.802Z,3.60
2019-04-19T12:02:25.797Z,3.60
2019-04-19T12:04:54.525Z,3.30
2019-04-19T12:07:24.237Z,3.30
2019-04-19T12:09:52.978Z,3.37
2019-04-19T12:12:21.482Z,3.53
2019-04-19T12:14:50.166Z,3.33
2019-04-19T12:17:18.789Z,3.37
2019-04-19T12:19:52.931Z,3.10
2019-04-19T12:22:17.585Z,3.20
2019-04-19T12:24:46.923Z,3.23
2019-04-19T12:27:16.342Z,3.33
2019-04-19T12:29:48.715Z,3.27
2019-04-19T12:32:17.112Z,3.00
2019-04-19T12:34:47.164Z,3.07
2019-04-19T12:37:17.273Z,3.20
2019-04-19T12:39:45.869Z,3.00
2019-04-19T12:42:31.707Z,3.20
2019-04-19T12:45:01.970Z,3.00
2019-04-19T12:47:31.118Z,3.00
2019-04-19T12:50:05.679Z,2.80
2019-04-19T12:52:31.188Z,2.90
2019-04-19T12:54:59.842Z,3.07
2019-04-19T12:57:30.062Z,3.10
2019-04-19T12:59:58.557Z,2.93
2019-04-19T13:02:45.045Z,2.80
2019-04-19T13:05:18.458Z,2.90
2019-04-19T13:07:47.318Z,3.03
2019-04-19T13:10:18.034Z,3.03
2019-04-19T13:12:47.762Z,2.97
2019-04-19T13:15:17.747Z,2.80
2019-04-19T13:17:46.927Z,2.80
2019-04-19T13:20:22.407Z,2.70
2019-04-19T13:22:46.347Z,2.50
2019-04-19T13:25:16.879Z,2.83
2019-04-19T13:27:50.631Z,2.77
2019-04-19T13:30:25.923Z,2.63
2019-04-19T13:32:47.933Z,2.90
2019-04-19T13:35:17.098Z,2.83
2019-04-19T13:38:03.323Z,2.70
2019-04-19T13:40:42.820Z,2.77
2019-04-19T13:43:11.519Z,3.30
2019-04-19T13:45:41.257Z,2.93
2019-04-19T13:48:10.493Z,2.60
2019-04-19T13:50:42.299Z,2.90
2019-04-19T13:53:09.343Z,2.97
2019-04-19T13:55:38.936Z,3.07
2019-04-19T13:58:07.664Z,2.70
2019-04-19T14:00:42.610Z,2.80
2019-04-19T14:03:11.922Z,2.60
2019-04-19T14:05:41.657Z,2.70
2019-04-19T14:08:11.184Z,3.03
2019-04-19T14:10:41.218Z,3.00
2019-04-19T14:13:10.542Z,2.90
2019-04-19T14:15:40.761Z,2.70
2019-04-19T14:18:10.800Z,2.93
2019-04-19T14:20:44.024Z,2.67
2019-04-19T14:23:10.410Z,2.90
2019-04-19T14:25:39.226Z,2.77
2019-04-19T14:28:09.273Z,2.77
2019-04-19T14:30:38.077Z,2.60
2019-04-19T14:33:08.352Z,2.47
2019-04-19T14:35:37.688Z,2.40
2019-04-19T14:38:07.541Z,2.70
2019-04-19T14:40:37.637Z,2.63
2019-04-19T14:43:06.718Z,2.87
2019-04-19T14:45:36.283Z,3.17
2019-04-19T14:48:05.152Z,2.80
2019-04-19T14:50:46.262Z,2.70
2019-04-19T14:53:04.043Z,2.50
2019-04-19T14:55:32.542Z,2.80
2019-04-19T14:58:01.086Z,2.90
2019-04-19T15:00:30.726Z,2.60
2019-04-19T15:03:07.366Z,2.77
2019-04-19T15:05:37.941Z,2.60
2019-04-19T15:08:06.557Z,2.60
2019-04-19T15:10:35.671Z,2.53
2019-04-19T15:13:04.938Z,2.40
2019-04-19T15:15:34.160Z,2.40
2019-04-19T15:18:02.738Z,2.57
2019-04-19T15:20:32.115Z,3.00
2019-04-19T15:23:00.799Z,2.40
2019-04-19T15:25:29.831Z,3.00
2019-04-19T15:27:59.082Z,2.57
2019-04-19T15:30:28.810Z,3.13
2019-04-19T15:32:58.363Z,2.90
2019-04-19T15:35:27.816Z,2.97
2019-04-19T15:37:56.426Z,2.40
2019-04-19T15:40:25.855Z,2.40
2019-04-19T15:42:54.877Z,2.60
2019-04-19T15:45:25.202Z,2.73
2019-04-19T15:47:54.927Z,2.60
2019-04-19T15:50:24.441Z,2.83
2019-04-19T15:52:53.787Z,2.83
2019-04-19T15:55:23.682Z,2.67
2019-04-19T15:57:52.685Z,2.60
2019-04-19T16:00:25.973Z,2.70
2019-04-19T16:03:05.577Z,2.57
2019-04-19T16:05:46.218Z,2.67
2019-04-19T16:08:22.664Z,2.67
2019-04-19T16:11:02.624Z,2.30
2019-04-19T16:13:31.949Z,2.60
2019-04-19T16:16:00.522Z,2.83
2019-04-19T16:18:29.245Z,2.80
2019-04-19T16:20:59.100Z,2.50
2019-04-19T16:23:28.148Z,2.63
2019-04-19T16:25:57.037Z,2.50
2019-04-19T16:28:25.748Z,2.77
2019-04-19T16:30:54.613Z,2.80
2019-04-19T16:33:23.418Z,2.80
2019-04-19T16:35:52.260Z,2.97
2019-04-19T16:38:21.847Z,3.03
2019-04-19T16:40:50.598Z,2.60
2019-04-19T16:43:19.583Z,2.67
2019-04-19T16:46:01.432Z,2.60
2019-04-19T16:48:18.841Z,2.70
2019-04-19T16:50:48.375Z,2.70
2019-04-19T16:53:17.750Z,2.70
2019-04-19T16:55:47.674Z,2.83
2019-04-19T16:58:16.713Z,2.83
2019-04-19T17:00:47.004Z,2.80
2019-04-19T17:03:17.322Z,2.90
2019-04-19T17:05:46.540Z,2.50
2019-04-19T17:08:15.533Z,2.70
2019-04-19T17:10:44.831Z,2.80
2019-04-19T17:13:14.885Z,2.57
2019-04-19T17:15:46.582Z,2.60
2019-04-19T17:18:34.555Z,2.50
2019-04-19T17:21:10.843Z,2.67
2019-04-19T17:23:40.484Z,2.47
2019-04-19T17:26:09.323Z,2.40
2019-04-19T17:28:38.924Z,2.40
2019-04-19T17:31:08.594Z,2.40
2019-04-19T17:33:38.122Z,2.53
2019-04-19T17:36:08.115Z,2.80
2019-04-19T17:38:44.668Z,2.40
2019-04-19T17:41:07.623Z,2.53
2019-04-19T17:43:37.535Z,2.57
2019-04-19T17:46:06.614Z,2.30
2019-04-19T17:48:36.739Z,2.47
2019-04-19T17:51:06.034Z,2.40
2019-04-19T17:53:39.936Z,2.30
2019-04-19T17:56:05.619Z,2.20
2019-04-19T17:58:34.312Z,2.30
2019-04-19T18:01:04.113Z,2.20
2019-04-19T18:03:33.289Z,2.00
2019-04-19T18:06:02.422Z,2.20
2019-04-19T18:08:33.083Z,2.20
2019-04-19T18:11:03.326Z,2.37
2019-04-19T18:13:33.062Z,2.30
2019-04-19T18:16:02.750Z,2.00
2019-04-19T18:18:41.174Z,2.17
2019-04-19T18:21:02.617Z,2.20
2019-04-19T18:23:41.126Z,2.20
2019-04-19T18:26:03.350Z,2.00
2019-04-19T18:28:38.295Z,2.10
2019-04-19T18:31:03.686Z,2.03
2019-04-19T18:33:34.334Z,2.20
2019-04-19T18:36:06.948Z,2.07
2019-04-19T18:38:33.201Z,2.50
2019-04-19T18:41:02.913Z,2.70
2019-04-19T18:43:41.660Z,2.77
2019-04-19T18:46:02.450Z,2.80
2019-04-19T18:48:31.481Z,2.50
2019-04-19T18:51:00.213Z,3.23
2019-04-19T18:53:39.265Z,7.70
2019-04-19T18:56:03.050Z,11.20
2019-04-19T18:58:32.975Z,20.30
2019-04-19T19:00:59.738Z,15.30
2019-04-19T19:03:33.972Z,9.17
2019-04-19T19:06:01.632Z,6.17
2019-04-19T19:08:31.421Z,5.70
2019-04-19T19:10:59.005Z,5.00
2019-04-19T19:13:31.892Z,4.53
2019-04-19T19:15:58.292Z,6.50
2019-04-19T19:18:35.033Z,5.83
2019-04-19T19:21:00.136Z,4.97
2019-04-19T19:23:44.701Z,3.50
2019-04-19T19:26:10.596Z,4.00
2019-04-19T19:28:28.582Z,3.73
2019-04-19T19:30:58.708Z,3.80
2019-04-19T19:33:36.625Z,3.37
2019-04-19T19:36:00.195Z,3.00
2019-04-19T19:38:30.847Z,2.90
2019-04-19T19:41:09.591Z,2.70
2019-04-19T19:43:42.575Z,2.40
2019-04-19T19:46:22.999Z,2.30
2019-04-19T19:48:57.739Z,2.63
2019-04-19T19:51:18.126Z,2.40
2019-04-19T19:54:25.426Z,2.00
2019-04-19T19:56:39.468Z,2.60
2019-04-19T19:58:36.855Z,2.40
2019-04-19T20:01:11.823Z,2.30
2019-04-19T20:03:37.712Z,2.47
2019-04-19T20:06:04.940Z,2.43
2019-04-19T20:08:37.447Z,2.50
2019-04-19T20:11:01.944Z,2.23
2019-04-19T20:13:35.953Z,2.50
2019-04-19T20:16:00.892Z,2.50
2019-04-19T20:18:38.239Z,2.37
2019-04-19T20:21:00.794Z,2.60
2019-04-19T20:23:35.352Z,2.57
2019-04-19T20:26:08.532Z,3.00
2019-04-19T20:28:33.280Z,2.80
2019-04-19T20:31:02.505Z,2.70
2019-04-19T20:33:36.888Z,2.63
2019-04-19T20:36:04.324Z,2.70
2019-04-19T20:38:42.129Z,2.93
2019-04-19T20:41:03.791Z,2.87
2019-04-19T20:43:46.065Z,2.23
2019-04-19T20:46:09.665Z,2.60
2019-04-19T20:48:33.493Z,2.30
2019-04-19T20:51:10.732Z,2.10
2019-04-19T20:53:42.983Z,2.10
2019-04-19T20:56:48.602Z,2.07
2019-04-19T20:58:57.917Z,2.67
2019-04-19T21:01:26.279Z,2.00
2019-04-19T21:03:58.390Z,2.10
2019-04-19T21:06:30.634Z,2.30
2019-04-19T21:08:56.250Z,2.20
2019-04-19T21:11:29.115Z,1.80
2019-04-19T21:13:59.966Z,2.10
2019-04-19T21:16:27.238Z,2.20
2019-04-19T21:19:00.701Z,2.23
2019-04-19T21:21:27.065Z,1.97
2019-04-19T21:24:00.490Z,2.10
2019-04-19T21:26:31.261Z,2.10
2019-04-19T21:28:58.054Z,2.10
2019-04-19T21:31:34.363Z,2.20
2019-04-19T21:33:59.432Z,2.13
2019-04-19T21:36:34.859Z,2.27
2019-04-19T21:39:04.380Z,2.30
2019-04-19T21:41:32.973Z,2.10
2019-04-19T21:43:58.600Z,2.00
2019-04-19T21:46:31.774Z,2.17
2019-04-19T21:49:03.659Z,1.97
2019-04-19T21:51:32.795Z,2.10
2019-04-19T21:53:58.775Z,2.10
2019-04-19T21:56:27.727Z,2.20
2019-04-19T21:58:59.179Z,2.57
2019-04-19T22:01:27.608Z,2.30
2019-04-19T22:04:04.764Z,2.13
2019-04-19T22:06:29.514Z,1.90
2019-04-19T22:08:59.186Z,2.20
2019-04-19T22:11:27.193Z,2.17
2019-04-19T22:13:56.073Z,2.00
2019-04-19T22:16:32.572Z,2.20
2019-04-19T22:18:56.231Z,2.37
2019-04-19T22:21:30.179Z,2.50
2019-04-19T22:23:56.399Z,2.80
2019-04-19T22:26:31.175Z,2.77
2019-04-19T22:28:55.566Z,2.53
2019-04-19T22:31:30.210Z,2.57
2019-04-19T22:33:54.588Z,2.43
2019-04-19T22:36:23.612Z,2.77
2019-04-19T22:38:55.060Z,2.60
2019-04-19T22:41:25.356Z,2.60
2019-04-19T22:43:52.785Z,2.67
2019-04-19T22:46:21.529Z,2.70
2019-04-19T22:48:54.108Z,2.30
2019-04-19T22:51:20.767Z,2.30
2019-04-19T22:53:50.429Z,2.83
2019-04-19T22:56:28.107Z,3.00
2019-04-19T22:58:49.593Z,3.00
2019-04-19T23:01:21.910Z,3.20
2019-04-19T23:03:50.541Z,3.37
2019-04-19T23:06:23.346Z,3.20
2019-04-19T23:08:50.523Z,3.13
2019-04-19T23:11:19.437Z,3.23
2019-04-19T23:13:47.961Z,3.30
2019-04-19T23:16:17.309Z,3.33
2019-04-19T23:18:53.208Z,3.03
2019-04-19T23:21:19.939Z,3.30
2019-04-19T23:23:47.095Z,2.97
2019-04-19T23:26:29.418Z,2.97
2019-04-19T23:28:48.020Z,2.83
2019-04-19T23:31:17.993Z,3.30
2019-04-19T23:33:55.057Z,3.17
2019-04-19T23:36:21.279Z,3.40
2019-04-19T23:38:47.476Z,4.37
2019-04-19T23:41:17.264Z,3.40
2019-04-19T23:43:47.238Z,3.13
2019-04-19T23:46:24.022Z,3.53
2019-04-19T23:48:46.899Z,3.50
2019-04-19T23:51:16.590Z,3.33
2019-04-19T23:53:46.415Z,3.30
2019-04-19T23:56:22.392Z,3.77
2019-04-19T23:58:46.155Z,3.57
